createdAt,value
2024-03-05T00:01:32.216Z,5.05
2024-03-05T00:04:33.968Z,5.00
2024-03-05T00:07:38.456Z,4.92
2024-03-05T00:10:42.761Z,4.83
2024-03-05T00:13:44.618Z,4.77
2024-03-05T00:16:47.707Z,4.72
2024-03-05T00:19:49.618Z,4.73
2024-03-05T00:22:52.088Z,4.80
2024-03-05T00:25:53.871Z,4.80
2024-03-05T00:28:57.775Z,4.72
2024-03-05T00:31:59.612Z,4.84
2024-03-05T00:35:01.386Z,4.87
2024-03-05T00:38:06.510Z,4.85
2024-03-05T00:41:10.436Z,4.85
2024-03-05T00:44:12.261Z,4.82
2024-03-05T00:47:14.796Z,4.77
2024-03-05T00:50:16.406Z,4.66
2024-03-05T00:53:18.652Z,4.66
2024-03-05T00:56:20.573Z,4.53
2024-03-05T00:59:22.874Z,4.55
2024-03-05T01:02:24.776Z,4.55
2024-03-05T01:05:26.614Z,4.57
2024-03-05T01:08:29.080Z,4.63
2024-03-05T01:11:31.136Z,4.74
2024-03-05T01:14:32.813Z,4.67
2024-03-05T01:17:34.438Z,4.56
2024-03-05T01:20:40.089Z,4.51
2024-03-05T01:23:41.663Z,4.43
2024-03-05T01:26:44.597Z,4.39
2024-03-05T01:29:48.551Z,4.30
2024-03-05T01:32:50.251Z,4.30
2024-03-05T01:35:53.188Z,4.26
2024-03-05T01:38:54.803Z,4.25
2024-03-05T01:41:57.067Z,4.24
2024-03-05T01:44:59.021Z,4.35
2024-03-05T01:48:01.968Z,4.36
2024-03-05T01:51:03.856Z,4.40
2024-03-05T01:54:07.266Z,4.37
2024-03-05T01:57:10.844Z,4.43
2024-03-05T02:00:16.443Z,4.59
2024-03-05T02:03:18.729Z,4.57
2024-03-05T02:06:22.736Z,4.54
2024-03-05T02:09:25.407Z,4.41
2024-03-05T02:12:27.030Z,4.38
2024-03-05T02:15:28.713Z,4.31
2024-03-05T02:18:30.367Z,4.30
2024-03-05T02:21:32.605Z,4.20
2024-03-05T02:24:34.408Z,4.15
2024-03-05T02:27:40.510Z,4.08
2024-03-05T02:30:42.545Z,4.19
2024-03-05T02:33:47.102Z,4.18
2024-03-05T02:36:48.891Z,4.19
2024-03-05T02:39:50.955Z,4.12
2024-03-05T02:42:53.845Z,4.26
2024-03-05T02:45:55.407Z,4.40
2024-03-05T02:48:56.911Z,4.54
2024-03-05T02:51:58.528Z,4.64
2024-03-05T02:55:00.198Z,4.68
2024-03-05T02:58:01.873Z,4.72
2024-03-05T03:01:04.048Z,4.86
2024-03-05T03:04:06.735Z,4.90
2024-03-05T03:07:08.632Z,4.87
2024-03-05T03:10:12.341Z,4.79
2024-03-05T03:13:14.111Z,4.71
2024-03-05T03:16:15.969Z,4.72
2024-03-05T03:19:17.735Z,4.67
2024-03-05T03:22:19.432Z,4.67
2024-03-05T03:25:21.093Z,4.70
2024-03-05T03:28:23.491Z,4.77
2024-03-05T03:31:27.040Z,4.68
2024-03-05T03:34:28.748Z,4.65
2024-03-05T03:37:30.769Z,4.61
2024-03-05T03:40:35.238Z,4.78
2024-03-05T03:43:37.086Z,4.86
2024-03-05T03:46:39.012Z,4.95
2024-03-05T03:49:49.310Z,4.84
2024-03-05T03:52:51.072Z,4.73
2024-03-05T03:55:53.088Z,4.76
2024-03-05T03:58:54.786Z,4.74
2024-03-05T04:01:56.488Z,4.82
2024-03-05T04:04:58.171Z,4.84
2024-03-05T04:08:04.332Z,4.89
2024-03-05T04:11:07.590Z,4.79
2024-03-05T04:14:09.759Z,4.73
2024-03-05T04:17:11.344Z,4.78
2024-03-05T04:20:16.121Z,4.72
2024-03-05T04:23:19.163Z,4.70
2024-03-05T04:26:28.085Z,4.66
2024-03-05T04:29:31.524Z,4.72
2024-03-05T04:32:34.385Z,4.78
2024-03-05T04:35:37.523Z,4.79
2024-03-05T04:38:42.214Z,4.92
2024-03-05T04:41:46.716Z,5.09
2024-03-05T04:44:48.343Z,5.24
2024-03-05T04:47:51.247Z,5.23
2024-03-05T04:50:53.478Z,5.35
2024-03-05T04:53:55.239Z,5.43
2024-03-05T04:57:01.996Z,5.43
2024-03-05T05:00:04.046Z,5.42
2024-03-05T05:03:07.442Z,5.41
2024-03-05T05:06:09.092Z,5.51
2024-03-05T05:09:10.670Z,5.47
2024-03-05T05:12:13.224Z,5.56
2024-03-05T05:15:15.563Z,5.44
2024-03-05T05:18:17.474Z,5.39
2024-03-05T05:21:19.243Z,5.37
2024-03-05T05:24:20.962Z,5.42
2024-03-05T05:27:23.137Z,5.42
2024-03-05T05:30:25.182Z,5.44
2024-03-05T05:33:26.998Z,5.38
2024-03-05T05:36:28.688Z,5.39
2024-03-05T05:39:30.346Z,5.38
2024-03-05T05:42:31.997Z,5.36
2024-03-05T05:45:33.693Z,5.44
2024-03-05T05:48:36.729Z,5.49
2024-03-05T05:51:39.502Z,5.60
2024-03-05T05:54:44.934Z,5.67
2024-03-05T05:57:48.800Z,5.78
2024-03-05T06:00:51.859Z,5.89
2024-03-05T06:03:54.537Z,5.97
2024-03-05T06:06:56.183Z,5.95
2024-03-05T06:09:57.809Z,5.95
2024-03-05T06:12:59.800Z,6.02
2024-03-05T06:16:01.479Z,6.07
2024-03-05T06:19:03.164Z,6.09
2024-03-05T06:22:05.028Z,6.16
2024-03-05T06:25:10.600Z,6.28
2024-03-05T06:28:13.479Z,6.34
2024-03-05T06:31:17.658Z,6.41
2024-03-05T06:34:20.158Z,6.52
2024-03-05T06:37:21.745Z,6.68
2024-03-05T06:40:26.615Z,6.76
2024-03-05T06:43:37.762Z,6.86
2024-03-05T06:46:42.876Z,6.95
2024-03-05T06:49:44.684Z,7.18
2024-03-05T06:53:18.648Z,7.14
2024-03-05T06:56:38.678Z,7.18
2024-03-05T06:59:40.257Z,7.32
2024-03-05T07:02:45.053Z,7.43
2024-03-05T07:05:46.657Z,7.48
2024-03-05T07:08:49.944Z,7.68
2024-03-05T07:11:51.778Z,7.82
2024-03-05T07:14:53.714Z,8.01
2024-03-05T07:17:55.442Z,8.08
2024-03-05T07:20:57.401Z,8.29
2024-03-05T07:24:00.588Z,8.45
2024-03-05T07:27:08.426Z,8.58
2024-03-05T07:30:13.363Z,8.76
2024-03-05T07:33:15.015Z,8.91
2024-03-05T07:36:16.800Z,9.04
2024-03-05T07:39:18.416Z,9.12
2024-03-05T07:42:20.067Z,9.26
2024-03-05T07:45:23.162Z,9.31
2024-03-05T07:48:24.725Z,9.45
2024-03-05T07:51:29.284Z,9.33
2024-03-05T07:54:35.161Z,9.41
2024-03-05T07:57:41.013Z,9.47
2024-03-05T08:00:42.627Z,9.66
2024-03-05T08:03:44.276Z,9.55
2024-03-05T08:06:45.972Z,9.59
2024-03-05T08:09:48.089Z,9.71
2024-03-05T08:12:51.427Z,9.64
2024-03-05T08:15:55.203Z,9.82
2024-03-05T08:18:56.814Z,9.89
2024-03-05T08:21:58.386Z,9.93
2024-03-05T08:24:59.958Z,9.99
2024-03-05T08:28:01.575Z,9.95
2024-03-05T08:31:03.228Z,10.06
2024-03-05T08:34:05.566Z,10.11
2024-03-05T08:37:09.514Z,10.13
2024-03-05T08:40:14.712Z,10.13
2024-03-05T08:43:16.412Z,10.15
2024-03-05T08:46:18.032Z,10.21
2024-03-05T08:49:20.009Z,10.16
2024-03-05T08:52:21.693Z,10.23
2024-03-05T08:55:24.503Z,10.32
2024-03-05T08:58:26.198Z,10.58
2024-03-05T09:01:29.429Z,11.06
2024-03-05T09:04:31.689Z,11.38
2024-03-05T09:07:33.368Z,11.69
2024-03-05T09:10:35.679Z,11.78
2024-03-05T09:13:41.845Z,11.88
2024-03-05T09:16:44.011Z,12.00
2024-03-05T09:19:45.835Z,11.89
2024-03-05T09:22:47.996Z,11.99
2024-03-05T09:25:49.905Z,12.16
2024-03-05T09:28:51.601Z,12.09
2024-03-05T09:31:53.231Z,12.50
2024-03-05T09:34:54.927Z,12.54
2024-03-05T09:37:57.620Z,12.88
2024-03-05T09:41:00.284Z,12.94
2024-03-05T09:44:04.675Z,13.12
2024-03-05T09:47:07.820Z,13.30
2024-03-05T09:50:12.913Z,13.50
2024-03-05T09:53:15.876Z,13.59
2024-03-05T09:56:17.811Z,13.69
2024-03-05T09:59:20.850Z,13.90
2024-03-05T10:02:25.887Z,13.68
2024-03-05T10:05:28.978Z,13.97
2024-03-05T10:08:30.976Z,14.19
2024-03-05T10:11:32.753Z,13.89
2024-03-05T10:14:36.069Z,14.07
2024-03-05T10:17:43.737Z,13.83
2024-03-05T10:20:45.365Z,14.61
2024-03-05T10:23:48.887Z,14.89
2024-03-05T10:26:51.094Z,14.76
2024-03-05T10:29:52.932Z,14.71
2024-03-05T10:33:05.675Z,15.42
2024-03-05T10:36:07.529Z,15.38
2024-03-05T10:39:10.158Z,15.79
2024-03-05T10:42:14.029Z,15.88
2024-03-05T10:45:16.436Z,15.84
2024-03-05T10:48:20.063Z,16.16
2024-03-05T10:51:25.194Z,16.49
2024-03-05T10:54:28.884Z,16.68
2024-03-05T10:57:30.566Z,17.12
2024-03-05T11:00:36.459Z,17.57
2024-03-05T11:03:41.392Z,18.19
2024-03-05T11:06:43.866Z,18.36
2024-03-05T11:09:46.511Z,18.17
2024-03-05T11:12:49.038Z,18.18
2024-03-05T11:15:51.957Z,17.87
2024-03-05T11:18:53.605Z,18.36
2024-03-05T11:21:56.340Z,18.51
2024-03-05T11:25:01.322Z,19.07
2024-03-05T11:28:02.955Z,18.90
2024-03-05T11:31:21.225Z,18.34
2024-03-05T11:34:23.943Z,18.46
2024-03-05T11:37:25.653Z,18.64
2024-03-05T11:40:35.629Z,19.26
2024-03-05T11:43:38.425Z,18.76
2024-03-05T11:46:42.921Z,18.84
2024-03-05T11:49:44.585Z,19.53
2024-03-05T11:52:46.933Z,19.48
2024-03-05T11:55:52.691Z,18.95
2024-03-05T11:58:57.474Z,18.95
2024-03-05T12:02:00.181Z,18.85
2024-03-05T12:05:06.405Z,18.14
2024-03-05T12:08:08.956Z,18.39
2024-03-05T12:11:10.827Z,19.20
2024-03-05T12:14:12.733Z,19.29
2024-03-05T12:17:15.314Z,19.43
2024-03-05T12:20:20.982Z,19.94
2024-03-05T12:23:40.782Z,20.16
2024-03-05T12:26:45.167Z,18.69
2024-03-05T12:29:46.869Z,20.08
2024-03-05T12:32:55.756Z,20.46
2024-03-05T12:35:59.419Z,19.89
2024-03-05T12:39:01.106Z,19.85
2024-03-05T12:42:15.088Z,19.54
2024-03-05T12:45:18.446Z,20.28
2024-03-05T12:48:26.950Z,20.41
2024-03-05T12:51:28.656Z,21.07
2024-03-05T12:54:30.304Z,20.02
2024-03-05T12:57:33.945Z,19.21
2024-03-05T13:00:36.450Z,19.04
2024-03-05T13:03:38.875Z,19.56
2024-03-05T13:06:40.525Z,18.97
2024-03-05T13:09:42.180Z,18.91
2024-03-05T13:12:43.822Z,19.66
2024-03-05T13:15:45.469Z,19.63
2024-03-05T13:18:49.468Z,18.53
2024-03-05T13:21:51.257Z,19.54
2024-03-05T13:24:56.076Z,18.96
2024-03-05T13:27:57.988Z,18.76
2024-03-05T13:31:00.067Z,18.48
2024-03-05T13:34:05.721Z,18.56
2024-03-05T13:37:07.798Z,18.96
2024-03-05T13:40:14.167Z,18.43
2024-03-05T13:43:15.776Z,17.79
2024-03-05T13:46:17.627Z,17.82
2024-03-05T13:49:20.304Z,17.99
2024-03-05T13:52:23.718Z,18.06
2024-03-05T13:55:27.700Z,17.92
2024-03-05T13:58:29.645Z,17.58
2024-03-05T14:01:32.489Z,17.26
2024-03-05T14:04:34.481Z,16.84
2024-03-05T14:07:36.132Z,16.51
2024-03-05T14:10:38.795Z,16.34
2024-03-05T14:13:41.357Z,16.20
2024-03-05T14:16:43.040Z,16.22
2024-03-05T14:19:45.182Z,16.33
2024-03-05T14:22:47.667Z,16.34
2024-03-05T14:25:49.556Z,16.11
2024-03-05T14:28:51.430Z,16.34
2024-03-05T14:31:54.440Z,16.36
2024-03-05T14:34:58.653Z,16.12
2024-03-05T14:38:00.754Z,15.92
2024-03-05T14:41:02.592Z,15.97
2024-03-05T14:44:06.069Z,16.02
2024-03-05T14:47:07.685Z,15.79
2024-03-05T14:50:09.752Z,15.92
2024-03-05T14:53:11.579Z,15.93
2024-03-05T14:56:14.090Z,15.75
2024-03-05T14:59:15.808Z,15.86
2024-03-05T15:02:17.535Z,15.68
2024-03-05T15:05:20.440Z,15.65
2024-03-05T15:08:22.253Z,15.43
2024-03-05T15:11:24.054Z,15.28
2024-03-05T15:14:25.766Z,15.07
2024-03-05T15:17:27.435Z,15.06
2024-03-05T15:20:29.241Z,14.94
2024-03-05T15:23:30.839Z,14.83
2024-03-05T15:26:33.169Z,14.61
2024-03-05T15:29:34.831Z,14.60
2024-03-05T15:32:36.532Z,14.52
2024-03-05T15:35:38.298Z,14.48
2024-03-05T15:38:39.882Z,14.52
2024-03-05T15:41:43.202Z,14.52
2024-03-05T15:44:44.817Z,14.37
2024-03-05T15:47:47.600Z,14.44
2024-03-05T15:50:49.355Z,14.39
2024-03-05T15:53:51.194Z,14.34
2024-03-05T15:56:59.216Z,14.29
2024-03-05T16:00:12.777Z,14.19
2024-03-05T16:03:15.198Z,14.04
2024-03-05T16:06:19.508Z,13.88
2024-03-05T16:09:21.626Z,13.61
2024-03-05T16:12:25.419Z,13.44
2024-03-05T16:15:28.402Z,13.32
2024-03-05T16:18:30.145Z,13.16
2024-03-05T16:21:34.464Z,12.99
2024-03-05T16:24:36.358Z,12.78
2024-03-05T16:27:47.116Z,12.59
2024-03-05T16:30:49.419Z,12.51
2024-03-05T16:33:51.140Z,12.44
2024-03-05T16:36:53.044Z,12.26
2024-03-05T16:39:54.790Z,12.14
2024-03-05T16:42:58.417Z,12.12
2024-03-05T16:46:01.220Z,12.07
2024-03-05T16:49:04.855Z,11.92
2024-03-05T16:52:07.733Z,11.78
2024-03-05T16:55:13.248Z,11.71
2024-03-05T16:58:17.935Z,11.59
2024-03-05T17:01:21.240Z,11.45
2024-03-05T17:04:27.695Z,11.34
2024-03-05T17:07:32.194Z,11.30
2024-03-05T17:10:33.965Z,11.19
2024-03-05T17:13:38.189Z,11.09
2024-03-05T17:16:46.154Z,11.00
2024-03-05T17:19:48.213Z,10.91
2024-03-05T17:22:56.594Z,10.88
2024-03-05T17:25:58.782Z,10.70
2024-03-05T17:29:06.667Z,10.52
2024-03-05T17:32:08.588Z,10.46
2024-03-05T17:35:13.689Z,10.35
2024-03-05T17:38:15.730Z,10.22
2024-03-05T17:41:17.407Z,10.21
2024-03-05T17:44:19.123Z,10.17
2024-03-05T17:47:20.886Z,10.08
2024-03-05T17:50:23.285Z,10.02
2024-03-05T17:53:24.967Z,10.08
2024-03-05T17:56:26.557Z,10.01
2024-03-05T17:59:28.207Z,9.97
2024-03-05T18:02:29.797Z,9.85
2024-03-05T18:05:31.862Z,9.70
2024-03-05T18:08:33.579Z,9.67
2024-03-05T18:11:35.300Z,9.60
2024-03-05T18:14:37.652Z,9.46
2024-03-05T18:17:40.569Z,9.42
2024-03-05T18:20:44.559Z,9.32
2024-03-05T18:23:46.400Z,9.34
2024-03-05T18:26:48.412Z,9.42
2024-03-05T18:29:56.795Z,9.40
2024-03-05T18:33:00.229Z,9.44
2024-03-05T18:36:03.781Z,9.46
2024-03-05T18:39:09.483Z,9.40
2024-03-05T18:42:11.246Z,9.33
2024-03-05T18:45:16.995Z,9.25
2024-03-05T18:48:19.011Z,9.15
2024-03-05T18:51:20.800Z,9.18
2024-03-05T18:54:23.406Z,9.17
2024-03-05T18:57:25.255Z,9.09
2024-03-05T19:00:27.848Z,9.10
2024-03-05T19:03:29.628Z,9.02
2024-03-05T19:06:31.408Z,8.95
2024-03-05T19:09:33.214Z,8.87
2024-03-05T19:12:37.482Z,8.82
2024-03-05T19:15:39.122Z,8.68
2024-03-05T19:18:41.209Z,8.61
2024-03-05T19:21:47.776Z,8.60
2024-03-05T19:24:49.647Z,8.54
2024-03-05T19:27:52.103Z,8.59
2024-03-05T19:30:54.102Z,8.62
2024-03-05T19:33:55.869Z,8.60
2024-03-05T19:36:58.328Z,8.51
2024-03-05T19:40:01.162Z,8.42
2024-03-05T19:43:02.835Z,8.26
2024-03-05T19:46:05.469Z,8.21
2024-03-05T19:49:07.622Z,8.10
2024-03-05T19:52:09.267Z,8.06
2024-03-05T19:55:14.078Z,7.96
2024-03-05T19:58:17.472Z,7.85
2024-03-05T20:01:19.419Z,7.78
2024-03-05T20:04:22.232Z,7.88
2024-03-05T20:07:23.802Z,7.88
2024-03-05T20:10:26.383Z,7.90
2024-03-05T20:13:28.398Z,7.76
2024-03-05T20:16:30.069Z,7.57
2024-03-05T20:19:35.471Z,7.46
2024-03-05T20:22:41.242Z,7.30
2024-03-05T20:25:43.062Z,7.17
2024-03-05T20:28:49.825Z,7.14
2024-03-05T20:31:53.397Z,7.05
2024-03-05T20:34:57.031Z,7.02
2024-03-05T20:38:00.106Z,7.11
2024-03-05T20:41:02.341Z,7.14
2024-03-05T20:44:05.011Z,7.15
2024-03-05T20:47:09.170Z,7.18
2024-03-05T20:50:13.354Z,7.38
2024-03-05T20:53:15.429Z,7.36
2024-03-05T20:56:17.137Z,7.33
2024-03-05T20:59:19.979Z,7.30
2024-03-05T21:02:22.729Z,7.34
2024-03-05T21:05:24.946Z,7.26
2024-03-05T21:08:26.661Z,7.23
2024-03-05T21:11:28.369Z,7.18
2024-03-05T21:14:30.252Z,7.10
2024-03-05T21:17:33.437Z,7.18
2024-03-05T21:20:36.950Z,7.26
2024-03-05T21:23:38.868Z,7.29
2024-03-05T21:26:54.427Z,7.19
2024-03-05T21:30:06.878Z,7.11
2024-03-05T21:33:08.583Z,7.18
2024-03-05T21:36:10.238Z,7.26
2024-03-05T21:39:14.734Z,7.37
2024-03-05T21:42:17.562Z,7.36
2024-03-05T21:45:19.415Z,7.26
2024-03-05T21:48:21.064Z,7.25
2024-03-05T21:51:22.739Z,7.28
2024-03-05T21:54:24.729Z,7.33
2024-03-05T21:57:26.536Z,7.37
2024-03-05T22:00:29.699Z,7.34
2024-03-05T22:03:31.463Z,7.34
2024-03-05T22:06:33.449Z,7.33
2024-03-05T22:09:35.373Z,7.27
2024-03-05T22:12:41.833Z,7.30
2024-03-05T22:15:44.247Z,7.28
2024-03-05T22:18:46.890Z,7.31
2024-03-05T22:21:48.536Z,7.37
2024-03-05T22:24:50.194Z,7.30
2024-03-05T22:27:52.024Z,7.27
2024-03-05T22:30:55.558Z,7.26
2024-03-05T22:33:57.167Z,7.25
2024-03-05T22:36:58.968Z,7.14
2024-03-05T22:40:00.539Z,7.17
2024-03-05T22:43:02.172Z,7.22
2024-03-05T22:46:04.581Z,7.26
2024-03-05T22:49:06.274Z,7.27
2024-03-05T22:52:08.061Z,7.16
2024-03-05T22:55:10.060Z,7.20
2024-03-05T22:58:11.752Z,7.19
2024-03-05T23:01:13.388Z,7.05
2024-03-05T23:04:15.039Z,6.92
2024-03-05T23:07:16.723Z,6.73
2024-03-05T23:10:18.433Z,6.60
2024-03-05T23:13:20.272Z,6.60
2024-03-05T23:16:21.882Z,6.61
2024-03-05T23:19:23.858Z,6.57
2024-03-05T23:22:25.601Z,6.60
2024-03-05T23:25:27.806Z,6.57
2024-03-05T23:28:30.272Z,6.55
2024-03-05T23:31:31.965Z,6.57
2024-03-05T23:34:35.477Z,6.48
2024-03-05T23:37:37.650Z,6.45
2024-03-05T23:40:40.055Z,6.35
2024-03-05T23:43:41.975Z,6.42
2024-03-05T23:46:43.818Z,6.38
2024-03-05T23:49:45.602Z,6.40
2024-03-05T23:52:47.677Z,6.37
2024-03-05T23:55:49.567Z,6.34
2024-03-05T23:58:51.665Z,6.39
